Time;durP1;ratioP1;P1;durP2;ratioP2;P2;SDS_P1;SDS_P2;PMS_P1;PMS_P2;Temp;Humidity;BMP_temperature;BMP_pressure;BME280_temperature;BME280_humidity;BME280_pressure;Samples;Min_cycle;Max_cycle;Signal;HPM_P1;HPM_P2
2021/04/14 00:00:37;;;;;;;7.20;5.40;;;-0.20;30.90;;;;;;5070979;28;20166;-74
2021/04/14 00:03:08;;;;;;;5.53;5.03;;;-0.20;30.80;;;;;;5071974;28;20258;-74
2021/04/14 00:05:36;;;;;;;6.18;5.55;;;-0.20;30.80;;;;;;5072324;28;20650;-74
2021/04/14 00:08:04;;;;;;;7.43;5.18;;;-0.20;30.70;;;;;;5070587;28;20264;-74
2021/04/14 00:10:32;;;;;;;5.95;5.18;;;-0.30;31.00;;;;;;5070438;28;20182;-73
2021/04/14 00:12:58;;;;;;;4.68;4.25;;;-0.30;31.20;;;;;;5072324;28;20189;-74
2021/04/14 00:15:30;;;;;;;6.40;5.25;;;-0.40;31.50;;;;;;5071598;28;20763;-75
2021/04/14 00:17:55;;;;;;;5.38;4.70;;;-0.40;31.70;;;;;;5070524;28;20178;-74
2021/04/14 00:20:21;;;;;;;8.93;5.87;;;-0.40;32.40;;;;;;5070954;28;20186;-73
2021/04/14 00:22:46;;;;;;;5.40;4.70;;;-0.30;31.80;;;;;;5070738;28;20193;-75
2021/04/14 00:25:16;;;;;;;5.47;4.87;;;-0.40;31.90;;;;;;5069278;28;20217;-75
2021/04/14 00:27:41;;;;;;;6.30;4.93;;;-0.40;32.10;;;;;;5073572;28;20227;-75
2021/04/14 00:30:08;;;;;;;9.00;5.77;;;-0.40;32.20;;;;;;5069246;28;20177;-75
2021/04/14 00:32:35;;;;;;;10.23;5.80;;;-0.40;32.30;;;;;;5071264;28;20623;-75
2021/04/14 00:35:02;;;;;;;5.43;4.95;;;-0.40;32.20;;;;;;5072029;28;20510;-75
2021/04/14 00:37:28;;;;;;;6.75;6.05;;;-0.50;32.30;;;;;;5071746;28;20253;-74
2021/04/14 00:39:53;;;;;;;6.30;4.70;;;-0.40;31.90;;;;;;5069749;28;20699;-74
2021/04/14 00:42:19;;;;;;;4.93;4.30;;;-0.40;31.80;;;;;;5072388;28;20249;-75
2021/04/14 00:44:45;;;;;;;7.73;4.77;;;-0.40;31.40;;;;;;5071508;28;20185;-75
2021/04/14 00:47:10;;;;;;;7.57;5.33;;;-0.40;31.20;;;;;;5070430;28;20193;-74
2021/04/14 00:49:36;;;;;;;7.03;5.70;;;-0.50;31.30;;;;;;5070720;28;20204;-72
2021/04/14 00:52:03;;;;;;;5.30;4.80;;;-0.40;31.10;;;;;;5069109;28;20201;-74
2021/04/14 00:54:28;;;;;;;5.22;4.65;;;-0.50;31.00;;;;;;5074758;28;20182;-73
2021/04/14 00:56:54;;;;;;;7.23;5.40;;;-0.60;31.60;;;;;;5075391;28;20200;-74
2021/04/14 00:59:19;;;;;;;5.93;5.30;;;-0.60;31.60;;;;;;5073481;28;20180;-75
2021/04/14 01:01:45;;;;;;;7.30;4.90;;;-0.70;31.60;;;;;;5075280;28;20647;-75
2021/04/14 01:04:10;;;;;;;7.00;5.30;;;-0.70;31.70;;;;;;5074921;28;20177;-74
2021/04/14 01:06:36;;;;;;;5.23;4.73;;;-0.80;32.10;;;;;;5073928;28;20460;-74
2021/04/14 01:09:02;;;;;;;6.63;4.80;;;-0.80;32.40;;;;;;5074543;28;20188;-73
2021/04/14 01:11:29;;;;;;;6.30;4.75;;;-0.80;32.80;;;;;;5075005;28;20196;-73
2021/04/14 01:13:54;;;;;;;5.70;4.13;;;-0.70;32.70;;;;;;5072806;28;20177;-72
2021/04/14 01:16:20;;;;;;;4.77;4.37;;;-0.70;32.70;;;;;;5072468;28;20732;-74
2021/04/14 01:18:46;;;;;;;4.90;4.28;;;-0.70;32.50;;;;;;5074780;28;20166;-72
2021/04/14 01:21:23;;;;;;;6.50;5.30;;;-0.80;32.50;;;;;;5075474;28;20268;-74
2021/04/14 01:23:50;;;;;;;4.97;4.57;;;-0.90;32.50;;;;;;5074120;28;20766;-73
2021/04/14 01:26:15;;;;;;;7.20;4.75;;;-1.00;33.10;;;;;;5074676;28;20295;-74
2021/04/14 01:28:42;;;;;;;6.80;5.47;;;-0.90;33.30;;;;;;5074892;28;20611;-74
2021/04/14 01:31:17;;;;;;;7.80;4.82;;;-1.00;33.20;;;;;;5073503;28;20253;-72
2021/04/14 01:33:43;;;;;;;7.57;6.88;;;-1.00;33.10;;;;;;5072827;28;20176;-73
2021/04/14 01:36:09;;;;;;;5.90;4.50;;;-1.00;33.20;;;;;;5074703;28;20212;-75
2021/04/14 01:38:35;;;;;;;7.28;5.25;;;-1.10;33.30;;;;;;5074475;28;20227;-72
2021/04/14 01:41:03;;;;;;;5.13;4.63;;;-1.10;33.10;;;;;;5074498;28;20591;-72
2021/04/14 01:43:29;;;;;;;5.22;4.25;;;-1.00;33.10;;;;;;5074541;28;20666;-74
2021/04/14 01:45:55;;;;;;;5.03;4.32;;;-1.00;33.20;;;;;;5074599;28;20284;-73
2021/04/14 01:48:21;;;;;;;8.77;4.57;;;-1.10;34.00;;;;;;5074510;28;20232;-72
2021/04/14 01:50:47;;;;;;;6.37;5.20;;;-1.10;33.10;;;;;;5074490;28;21155;-75
2021/04/14 01:53:17;;;;;;;5.23;4.70;;;-1.20;33.00;;;;;;5074308;28;20176;-74
2021/04/14 01:55:43;;;;;;;7.38;5.75;;;-1.20;34.10;;;;;;5072464;28;20479;-74
2021/04/14 01:58:10;;;;;;;6.18;5.05;;;-1.20;34.70;;;;;;5074362;28;20192;-74
2021/04/14 02:00:44;;;;;;;5.15;4.03;;;-1.30;33.70;;;;;;5073262;28;20174;-74
2021/04/14 02:03:10;;;;;;;5.40;4.90;;;-1.30;34.10;;;;;;5073222;28;20192;-73
2021/04/14 02:05:36;;;;;;;7.05;5.55;;;-1.30;33.70;;;;;;5074420;28;20208;-74
2021/04/14 02:08:02;;;;;;;5.87;3.77;;;-1.30;34.10;;;;;;5073919;28;20166;-74
2021/04/14 02:10:30;;;;;;;7.65;5.38;;;-1.30;34.00;;;;;;5073330;28;20327;-72
2021/04/14 02:12:57;;;;;;;8.30;4.90;;;-1.30;34.10;;;;;;5074373;28;20575;-74
2021/04/14 02:15:27;;;;;;;6.82;6.13;;;-1.30;34.20;;;;;;5073116;28;20577;-74
2021/04/14 02:17:53;;;;;;;6.78;5.50;;;-1.40;34.10;;;;;;5073966;28;20174;-74
2021/04/14 02:20:19;;;;;;;5.80;5.00;;;-1.40;34.20;;;;;;5071238;28;20182;-74
2021/04/14 02:22:45;;;;;;;5.10;4.57;;;-1.40;34.20;;;;;;5073491;28;20408;-74
2021/04/14 02:25:13;;;;;;;8.60;5.50;;;-1.40;34.20;;;;;;5074716;28;20220;-72
2021/04/14 02:27:39;;;;;;;6.38;5.13;;;-1.40;34.00;;;;;;5073193;28;20712;-74
2021/04/14 02:30:07;;;;;;;5.25;4.75;;;-1.40;33.70;;;;;;5071942;28;20210;-74
2021/04/14 02:32:34;;;;;;;5.88;5.38;;;-1.50;33.90;;;;;;5072465;28;20224;-73
2021/04/14 02:34:59;;;;;;;6.03;5.13;;;-1.50;34.40;;;;;;5071517;28;20210;-74
2021/04/14 02:37:25;;;;;;;6.23;4.70;;;-1.50;34.50;;;;;;5073299;28;20384;-74
2021/04/14 02:39:51;;;;;;;5.87;4.90;;;-1.50;34.60;;;;;;5072987;28;20844;-74
2021/04/14 02:42:16;;;;;;;5.33;4.23;;;-1.50;34.50;;;;;;5073172;28;20170;-74
2021/04/14 02:44:42;;;;;;;6.20;4.37;;;-1.40;43.50;;;;;;5073814;28;20188;-73
2021/04/14 02:47:09;;;;;;;5.77;4.70;;;-1.40;42.90;;;;;;5073494;28;20402;-73
2021/04/14 02:49:35;;;;;;;12.13;5.97;;;;;;;;;;5072747;28;20169;-74
2021/04/14 02:52:00;;;;;;;6.53;4.80;;;-1.60;33.80;;;;;;5064834;28;20655;-73
2021/04/14 02:54:26;;;;;;;5.03;4.47;;;-1.60;34.90;;;;;;5051928;28;20186;-74
2021/04/14 02:56:51;;;;;;;7.60;6.73;;;-1.60;35.10;;;;;;5054408;28;20240;-72
2021/04/14 02:59:17;;;;;;;6.93;6.23;;;-1.60;35.30;;;;;;5052008;28;20539;-73
2021/04/14 03:01:43;;;;;;;9.77;6.50;;;-1.50;35.40;;;;;;5053218;28;20181;-73
2021/04/14 03:04:08;;;;;;;10.43;6.90;;;-1.40;35.30;;;;;;5054082;28;20182;-72
2021/04/14 03:06:35;;;;;;;5.87;5.37;;;-1.30;34.90;;;;;;5053542;28;20201;-73
2021/04/14 03:09:00;;;;;;;8.90;6.95;;;-1.30;34.70;;;;;;5067951;28;20174;-73
2021/04/14 03:11:26;;;;;;;7.97;6.60;;;-1.30;34.50;;;;;;5052419;28;20354;-74
2021/04/14 03:13:51;;;;;;;6.90;6.37;;;-1.30;34.40;;;;;;5068082;28;20186;-73
2021/04/14 03:16:17;;;;;;;9.27;7.20;;;-1.30;34.10;;;;;;5051988;28;20229;-74
2021/04/14 03:18:43;;;;;;;6.90;6.30;;;-1.30;34.00;;;;;;5052984;28;20185;-73
2021/04/14 03:21:08;;;;;;;10.30;6.17;;;-1.30;34.30;;;;;;5059376;28;20182;-73
2021/04/14 03:23:34;;;;;;;5.90;5.30;;;-1.20;34.50;;;;;;5072856;28;20170;-73
2021/04/14 03:26:00;;;;;;;11.20;5.47;;;-1.20;34.30;;;;;;5071443;28;20259;-72
2021/04/14 03:28:25;;;;;;;8.83;5.80;;;-1.20;33.70;;;;;;5072144;28;20269;-74
2021/04/14 03:30:51;;;;;;;6.87;6.03;;;-1.30;33.90;;;;;;5071290;28;20720;-73
2021/04/14 03:33:17;;;;;;;7.07;6.23;;;-1.30;33.90;;;;;;5068936;28;20454;-73
2021/04/14 03:35:43;;;;;;;6.63;5.93;;;-1.40;34.40;;;;;;5053127;28;20299;-73
2021/04/14 03:38:09;;;;;;;9.27;7.20;;;-1.50;34.50;;;;;;5051090;28;20170;-73
2021/04/14 03:40:35;;;;;;;8.23;6.07;;;-1.60;34.50;;;;;;5064527;28;20262;-74
2021/04/14 03:43:01;;;;;;;8.02;6.30;;;-1.60;34.80;;;;;;5072246;28;20407;-73
2021/04/14 03:45:34;;;;;;;7.57;6.23;;;-1.60;35.00;;;;;;5071185;28;20190;-73
2021/04/14 03:48:00;;;;;;;6.40;5.38;;;-1.60;35.10;;;;;;5073177;28;20404;-73
2021/04/14 03:50:27;;;;;;;7.20;6.10;;;-1.60;35.50;;;;;;5071868;28;20166;-73
2021/04/14 03:52:53;;;;;;;6.90;5.55;;;-1.50;35.40;;;;;;5071863;28;20182;-73
2021/04/14 03:55:22;;;;;;;6.60;5.90;;;-1.60;35.50;;;;;;5071663;28;20687;-73
2021/04/14 03:57:48;;;;;;;7.03;6.10;;;-1.60;35.10;;;;;;5070434;28;20246;-72
2021/04/14 04:00:18;;;;;;;8.73;6.77;;;-1.70;35.10;;;;;;5072057;28;20181;-71
2021/04/14 04:02:43;;;;;;;5.40;4.45;;;-1.70;35.50;;;;;;5070480;28;20890;-73
2021/04/14 04:05:10;;;;;;;7.07;6.03;;;-1.80;36.10;;;;;;5072466;28;20223;-73
2021/04/14 04:07:36;;;;;;;7.78;6.22;;;-1.70;35.80;;;;;;5071666;28;20188;-73
2021/04/14 04:10:04;;;;;;;10.38;6.05;;;-1.80;35.90;;;;;;5071645;28;20201;-72
2021/04/14 04:12:30;;;;;;;8.48;6.07;;;-1.80;36.40;;;;;;5072344;28;20176;-74
2021/04/14 04:14:57;;;;;;;6.60;5.80;;;-1.70;35.90;;;;;;5071756;28;20205;-74
2021/04/14 04:17:23;;;;;;;7.82;5.82;;;-1.70;35.70;;;;;;5072257;28;20174;-73
2021/04/14 04:19:49;;;;;;;7.60;5.47;;;-1.80;35.60;;;;;;5069524;28;20262;-73
2021/04/14 04:22:18;;;;;;;9.83;5.53;;;-1.80;35.50;;;;;;5070102;28;20181;-72
2021/04/14 04:24:45;;;;;;;7.45;6.05;;;-1.90;35.60;;;;;;5071877;28;20551;-73
2021/04/14 04:27:11;;;;;;;7.10;6.40;;;-1.90;35.90;;;;;;5073328;28;20645;-72
2021/04/14 04:29:37;;;;;;;9.33;5.90;;;-1.90;35.90;;;;;;5075230;28;20181;-72
2021/04/14 04:32:02;;;;;;;8.43;7.20;;;-1.90;36.10;;;;;;5075636;28;20177;-73
2021/04/14 04:34:28;;;;;;;12.93;6.53;;;-1.80;36.00;;;;;;5075698;28;20639;-71
2021/04/14 04:36:53;;;;;;;6.67;5.87;;;-1.70;35.80;;;;;;5075455;28;20197;-72
2021/04/14 04:39:20;;;;;;;6.30;5.70;;;-1.70;35.30;;;;;;5075679;28;20172;-70
2021/04/14 04:41:47;;;;;;;12.60;6.55;;;-1.80;35.30;;;;;;5074276;28;20173;-72
2021/04/14 04:44:13;;;;;;;11.00;7.65;;;-1.80;35.30;;;;;;5075498;28;20617;-73
2021/04/14 04:46:39;;;;;;;7.32;6.05;;;-1.90;35.60;;;;;;5073706;28;20238;-74
2021/04/14 04:49:04;;;;;;;7.00;5.97;;;-1.90;35.90;;;;;;5053996;28;20225;-73
2021/04/14 04:51:30;;;;;;;7.50;6.30;;;-1.90;36.00;;;;;;5054243;28;20210;-72
2021/04/14 04:53:56;;;;;;;7.53;5.87;;;-1.80;35.70;;;;;;5054458;28;20207;-71
2021/04/14 04:56:22;;;;;;;8.52;6.15;;;-1.80;35.60;;;;;;5070763;28;20216;-73
2021/04/14 04:58:48;;;;;;;7.40;6.68;;;-1.70;35.40;;;;;;5054840;28;20166;-72
2021/04/14 05:01:14;;;;;;;9.03;6.43;;;-1.70;35.00;;;;;;5053235;28;20182;-72
2021/04/14 05:03:39;;;;;;;10.23;6.20;;;-1.60;35.10;;;;;;5054700;28;20628;-72
2021/04/14 05:06:05;;;;;;;7.30;5.83;;;-1.60;35.30;;;;;;5054158;28;20213;-71
2021/04/14 05:08:31;;;;;;;7.23;5.90;;;-1.50;35.30;;;;;;5054684;28;20644;-71
2021/04/14 05:10:56;;;;;;;5.97;5.37;;;-1.40;34.90;;;;;;5069437;28;21202;-72
2021/04/14 05:13:22;;;;;;;10.20;6.30;;;-1.40;37.80;;;;;;5055148;28;20587;-70
2021/04/14 05:15:48;;;;;;;9.18;5.97;;;-1.30;46.90;;;;;;5054699;28;20260;-70
2021/04/14 05:18:14;;;;;;;6.87;5.03;;;-1.20;39.70;;;;;;5054955;28;20232;-71
2021/04/14 05:20:40;;;;;;;7.90;6.75;;;-1.10;33.90;;;;;;5054003;28;20587;-72
2021/04/14 05:23:07;;;;;;;5.90;5.40;;;;;;;;;;5053824;28;20175;-73
2021/04/14 05:25:34;;;;;;;12.38;6.13;;;-1.00;33.10;;;;;;5054719;28;20972;-73
2021/04/14 05:28:09;;;;;;;6.85;4.65;;;-0.60;33.80;;;;;;5053866;28;20606;-71
2021/04/14 05:30:36;;;;;;;8.35;5.75;;;1.00;32.60;;;;;;5055311;28;20181;-73
2021/04/14 05:33:07;;;;;;;7.78;4.80;;;1.20;30.80;;;;;;5053689;28;20184;-72
2021/04/14 05:35:33;;;;;;;6.35;5.65;;;2.70;26.30;;;;;;5053483;28;20291;-71
2021/04/14 05:37:58;;;;;;;6.97;5.83;;;4.20;21.20;;;;;;5052232;28;20209;-72
2021/04/14 05:40:24;;;;;;;6.20;5.60;;;5.30;18.50;;;;;;5052381;28;20417;-72
2021/04/14 05:42:50;;;;;;;12.57;6.00;;;6.30;16.70;;;;;;5054660;28;20257;-72
2021/04/14 05:45:25;;;;;;;7.00;6.40;;;7.30;14.60;;;;;;5063497;28;20192;-72
2021/04/14 05:47:50;;;;;;;9.77;6.60;;;8.20;13.00;;;;;;5061161;28;20428;-72
2021/04/14 05:50:19;;;;;;;12.23;6.63;;;8.80;11.80;;;;;;5051446;28;20409;-72
2021/04/14 05:52:45;;;;;;;8.33;7.67;;;9.50;10.30;;;;;;5053065;28;20179;-72
2021/04/14 05:55:11;;;;;;;9.07;8.17;;;10.10;8.50;;;;;;5052912;28;20941;-72
2021/04/14 05:57:36;;;;;;;9.13;8.33;;;10.60;8.00;;;;;;5068288;28;20176;-72
2021/04/14 06:00:05;;;;;;;8.50;7.87;;;11.00;6.30;;;;;;5052585;28;20964;-71
2021/04/14 06:02:31;;;;;;;9.53;8.83;;;10.90;5.80;;;;;;5052592;28;20188;-72
2021/04/14 06:04:57;;;;;;;12.63;8.50;;;11.20;6.00;;;;;;5052910;28;20420;-72
2021/04/14 06:07:24;;;;;;;9.70;9.00;;;11.30;5.70;;;;;;5068340;28;20435;-72
2021/04/14 06:09:50;;;;;;;9.77;8.47;;;11.40;5.70;;;;;;5052662;28;20172;-72
2021/04/14 06:12:15;;;;;;;8.80;8.30;;;11.30;6.70;;;;;;5051809;28;20420;-73
2021/04/14 06:14:44;;;;;;;8.40;7.70;;;11.80;5.30;;;;;;5052758;28;20259;-72
2021/04/14 06:17:09;;;;;;;8.60;8.00;;;12.10;4.20;;;;;;5052637;28;20194;-72
2021/04/14 06:19:35;;;;;;;8.63;8.03;;;12.30;4.00;;;;;;5055983;28;20500;-72
2021/04/14 06:22:02;;;;;;;8.50;7.97;;;12.50;3.70;;;;;;5056261;28;20639;-72
2021/04/14 06:24:28;;;;;;;9.20;8.70;;;12.70;3.30;;;;;;5067895;28;20420;-72
2021/04/14 06:26:56;;;;;;;10.17;9.40;;;12.90;7.50;;;;;;5052308;28;20487;-71
2021/04/14 06:29:22;;;;;;;11.43;10.30;;;13.20;2.90;;;;;;5053681;28;20177;-72
2021/04/14 06:31:48;;;;;;;11.13;10.13;;;13.30;3.00;;;;;;5068994;28;20481;-74
2021/04/14 06:34:21;;;;;;;12.37;11.37;;;13.40;2.80;;;;;;5074876;28;20439;-69
2021/04/14 06:36:49;;;;;;;11.40;10.60;;;13.50;2.60;;;;;;5075288;28;20213;-69
2021/04/14 06:39:16;;;;;;;11.10;10.20;;;13.50;2.70;;;;;;5073682;28;20784;-72
2021/04/14 06:42:47;;;;;;;12.93;11.93;;;13.60;3.20;;;;;;5072823;28;20454;-71
2021/04/14 06:45:03;;;;;;;12.80;11.90;;;13.40;3.00;;;;;;5053511;28;20443;-72
2021/04/14 06:47:49;;;;;;;11.87;11.07;;;13.10;2.80;;;;;;5055975;28;20416;-72
2021/04/14 06:50:28;;;;;;;11.40;10.70;;;12.70;3.50;;;;;;5060680;28;20435;-72
2021/04/14 06:53:21;;;;;;;11.40;10.73;;;12.80;3.00;;;;;;5075434;28;20402;-71
2021/04/14 06:55:58;;;;;;;12.60;11.80;;;12.80;3.50;;;;;;5076188;28;20478;-70
2021/04/14 06:58:48;;;;;;;12.20;11.47;;;12.90;3.40;;;;;;5078071;28;20963;-73
2021/04/14 07:01:20;;;;;;;12.80;11.83;;;13.40;3.00;;;;;;5077419;28;20415;-74
2021/04/14 07:04:10;;;;;;;11.50;10.80;;;13.50;2.60;;;;;;5064118;28;20417;-72
2021/04/14 07:06:40;;;;;;;14.33;13.13;;;13.60;3.00;;;;;;5056458;28;20448;-73
2021/04/14 07:09:15;;;;;;;12.47;11.60;;;13.90;2.10;;;;;;5056098;28;20417;-71
2021/04/14 07:11:41;;;;;;;13.50;12.70;;;14.00;2.20;;;;;;5057802;28;20769;-71
2021/04/14 07:14:08;;;;;;;14.07;13.27;;;14.10;1.50;;;;;;5072025;28;20424;-74
2021/04/14 07:16:55;;;;;;;14.67;13.60;;;13.90;1.70;;;;;;5080249;28;20465;-73
2021/04/14 07:19:30;;;;;;;14.10;13.03;;;14.20;2.10;;;;;;5078950;28;20427;-73
2021/04/14 07:22:12;;;;;;;14.67;13.77;;;14.20;2.40;;;;;;5079899;28;20454;-73
2021/04/14 07:24:48;;;;;;;12.70;11.50;;;14.10;1.90;;;;;;5080647;28;20415;-72
2021/04/14 07:27:26;;;;;;;13.60;12.60;;;13.90;2.10;;;;;;5080139;28;20509;-73
2021/04/14 07:30:08;;;;;;;15.87;14.67;;;13.00;2.80;;;;;;5078372;28;20416;-73
2021/04/14 07:32:55;;;;;;;15.17;14.30;;;12.10;4.00;;;;;;5067346;28;20456;-71
2021/04/14 07:35:34;;;;;;;15.73;14.33;;;11.20;5.00;;;;;;5063449;28;20490;-72
2021/04/14 07:38:15;;;;;;;14.63;13.63;;;10.30;6.60;;;;;;5080399;28;21012;-72
2021/04/14 07:40:58;;;;;;;22.07;14.80;;;10.10;5.90;;;;;;5081100;28;20419;-73
2021/04/14 07:43:33;;;;;;;13.53;12.63;;;9.90;7.50;;;;;;5070149;28;20460;-70
2021/04/14 07:45:59;;;;;;;13.63;13.00;;;9.70;6.60;;;;;;5067783;28;20456;-72
2021/04/14 07:48:29;;;;;;;14.80;14.00;;;9.90;6.80;;;;;;5061707;28;20434;-72
2021/04/14 07:50:59;;;;;;;14.70;13.80;;;10.20;5.30;;;;;;5051686;28;20274;-72
2021/04/14 07:53:32;;;;;;;14.90;14.00;;;10.60;5.60;;;;;;5052369;28;20435;-72
2021/04/14 07:56:13;;;;;;;14.60;13.90;;;11.40;4.90;;;;;;5050725;28;20470;-72
2021/04/14 07:58:42;;;;;;;14.30;13.50;;;11.90;4.30;;;;;;5052114;28;20403;-72
2021/04/14 08:01:14;;;;;;;15.73;14.50;;;12.10;3.30;;;;;;5052536;28;20441;-72
2021/04/14 08:03:40;;;;;;;15.03;13.60;;;12.00;3.10;;;;;;5070909;28;20450;-73
2021/04/14 08:06:08;;;;;;;13.37;12.67;;;12.40;2.80;;;;;;5070931;28;20439;-73
2021/04/14 08:08:34;;;;;;;14.53;13.80;;;12.60;2.50;;;;;;5071900;28;20504;-73
2021/04/14 08:11:30;;;;;;;13.30;12.70;;;13.20;2.90;;;;;;5057682;28;20471;-72
2021/04/14 08:14:09;;;;;;;15.07;14.27;;;13.60;2.60;;;;;;5052511;28;20174;-72
2021/04/14 08:16:38;;;;;;;14.00;13.10;;;14.20;1.20;;;;;;5052518;28;20470;-72
2021/04/14 08:19:19;;;;;;;15.70;14.50;;;14.30;1.00;;;;;;5052033;28;20501;-73
2021/04/14 08:22:11;;;;;;;14.57;13.87;;;13.80;1.90;;;;;;5071986;28;20507;-72
2021/04/14 08:24:54;;;;;;;14.23;13.53;;;14.20;1.90;;;;;;5053097;28;20961;-72
2021/04/14 08:27:36;;;;;;;14.60;13.87;;;14.30;1.30;;;;;;5051928;28;20433;-72
2021/04/14 08:30:02;;;;;;;13.87;13.17;;;14.50;1.00;;;;;;5066290;28;20945;-71
2021/04/14 08:32:30;;;;;;;15.03;14.17;;;14.60;1.00;;;;;;5087086;28;20552;-72
2021/04/14 08:34:59;;;;;;;17.03;15.60;;;14.60;1.00;;;;;;5081867;28;20209;-71
2021/04/14 08:37:26;;;;;;;15.23;14.53;;;13.80;2.00;;;;;;5069980;28;20412;-73
2021/04/14 08:40:26;;;;;;;16.40;15.50;;;13.20;2.90;;;;;;5055164;28;20432;-73
2021/04/14 08:42:53;;;;;;;16.83;15.87;;;12.40;4.60;;;;;;5008221;28;20441;-73
2021/04/14 08:45:30;;;;;;;15.40;14.67;;;11.40;5.00;;;;;;5049538;28;20449;-72
2021/04/14 08:48:08;;;;;;;15.20;14.03;;;10.70;6.90;;;;;;5049420;28;20424;-71
2021/04/14 08:50:39;;;;;;;14.20;13.60;;;10.30;7.70;;;;;;5048957;28;20527;-73
2021/04/14 08:53:13;;;;;;;15.07;14.23;;;9.80;8.20;;;;;;5066549;28;20436;-73
2021/04/14 08:55:40;;;;;;;15.20;14.50;;;9.40;10.00;;;;;;5049269;28;20562;-72
2021/04/14 08:58:06;;;;;;;13.70;13.00;;;8.90;9.70;;;;;;5050957;28;20502;-73
2021/04/14 09:00:32;;;;;;;14.53;13.83;;;8.50;10.00;;;;;;5068327;28;20436;-73
2021/04/14 09:03:02;;;;;;;15.30;14.50;;;8.30;10.20;;;;;;5071292;28;20180;-73
2021/04/14 09:05:28;;;;;;;14.50;13.70;;;8.10;10.20;;;;;;5070219;28;20644;-72
2021/04/14 09:07:56;;;;;;;13.90;13.30;;;7.90;9.10;;;;;;5066219;28;20608;-72
2021/04/14 09:10:40;;;;;;;13.43;12.30;;;7.70;10.10;;;;;;5068759;28;20727;-71
2021/04/14 09:13:08;;;;;;;14.60;13.80;;;7.70;11.10;;;;;;5070705;28;20178;-72
2021/04/14 09:15:54;;;;;;;13.82;13.13;;;8.00;10.90;;;;;;5074199;28;20215;-71
2021/04/14 09:18:36;;;;;;;14.63;13.82;;;8.20;10.30;;;;;;5073987;28;20182;-74
2021/04/14 09:21:18;;;;;;;14.30;13.53;;;8.40;10.80;;;;;;5053764;28;20173;-72
2021/04/14 09:24:39;;;;;;;14.17;13.40;;;8.60;9.50;;;;;;5063629;28;20418;-72
2021/04/14 09:27:15;;;;;;;14.30;13.50;;;8.70;9.60;;;;;;5056413;28;20493;-73
2021/04/14 09:29:43;;;;;;;13.80;13.17;;;8.90;9.70;;;;;;5073597;28;20415;-73
2021/04/14 09:32:12;;;;;;;15.27;14.10;;;8.90;9.70;;;;;;5074455;28;20416;-72
2021/04/14 09:34:44;;;;;;;14.10;13.20;;;8.70;9.60;;;;;;5057367;28;20423;-70
2021/04/14 09:37:13;;;;;;;14.17;13.47;;;8.60;10.00;;;;;;5053887;28;20444;-73
2021/04/14 09:39:59;;;;;;;14.60;13.80;;;8.60;9.50;;;;;;5053494;28;20405;-73
2021/04/14 09:42:24;;;;;;;14.67;13.70;;;8.70;10.30;;;;;;5058109;28;20416;-72
2021/04/14 09:44:55;;;;;;;14.47;13.60;;;8.50;9.50;;;;;;5066855;28;20483;-72
2021/04/14 09:47:30;;;;;;;14.50;13.23;;;8.50;9.50;;;;;;5053754;28;20203;-72
2021/04/14 09:50:12;;;;;;;14.90;14.03;;;8.50;9.10;;;;;;5054336;28;20796;-71
2021/04/14 09:52:44;;;;;;;14.60;13.80;;;8.60;8.90;;;;;;5066774;28;20494;-71
2021/04/14 09:55:46;;;;;;;16.13;14.90;;;8.50;7.60;;;;;;5074508;28;20473;-71
2021/04/14 09:58:35;;;;;;;14.27;13.47;;;8.50;7.90;;;;;;5062074;28;21043;-73
2021/04/14 10:01:13;;;;;;;15.25;14.40;;;8.50;8.00;;;;;;5070991;28;20513;-73
2021/04/14 10:03:43;;;;;;;16.38;15.25;;;8.40;4.90;;;;;;5054212;28;20239;-72
2021/04/14 10:06:13;;;;;;;14.77;14.17;;;8.40;6.60;;;;;;5053795;28;20193;-73
2021/04/14 10:08:41;;;;;;;13.55;13.00;;;8.50;6.00;;;;;;5053345;28;20442;-72
2021/04/14 10:11:07;;;;;;;15.00;14.40;;;8.40;4.80;;;;;;5052959;28;20178;-71
2021/04/14 10:13:33;;;;;;;13.93;13.33;;;8.40;4.90;;;;;;5073101;28;20543;-72
2021/04/14 10:16:01;;;;;;;14.60;13.90;;;8.40;4.90;;;;;;5073349;28;20207;-72
2021/04/14 10:18:31;;;;;;;14.97;14.27;;;8.40;5.00;;;;;;5073171;28;20275;-72
2021/04/14 10:21:17;;;;;;;14.00;13.40;;;8.50;3.30;;;;;;5072572;28;20765;-73
2021/04/14 10:23:44;;;;;;;14.40;13.80;;;8.70;3.30;;;;;;5053774;28;20413;-72
2021/04/14 10:26:12;;;;;;;15.40;14.50;;;8.80;2.10;;;;;;5051998;28;20872;-73
2021/04/14 10:28:46;;;;;;;14.23;13.63;;;8.90;2.50;;;;;;5053178;28;20408;-73
2021/04/14 10:31:21;;;;;;;14.70;14.00;;;8.80;3.30;;;;;;5052923;28;20926;-74
2021/04/14 10:33:48;;;;;;;15.53;14.73;;;8.60;3.50;;;;;;5052221;28;20787;-72
2021/04/14 10:36:20;;;;;;;15.17;14.27;;;8.70;4.00;;;;;;5064391;28;21097;-73
2021/04/14 10:38:46;;;;;;;14.40;13.70;;;8.60;3.90;;;;;;5068655;28;20426;-72
2021/04/14 10:41:29;;;;;;;14.73;14.13;;;8.50;3.50;;;;;;5052516;28;20419;-72
2021/04/14 10:43:54;;;;;;;15.35;14.75;;;8.50;2.10;;;;;;5072664;28;20544;-72
2021/04/14 10:46:36;;;;;;;15.53;14.83;;;8.60;2.00;;;;;;5071019;28;20208;-72
2021/04/14 10:49:05;;;;;;;14.90;14.23;;;8.60;2.10;;;;;;5071808;28;20260;-72
2021/04/14 10:51:46;;;;;;;16.07;15.07;;;8.90;1.00;;;;;;5064874;28;20413;-72
2021/04/14 10:54:14;;;;;;;15.13;14.53;;;9.20;1.60;;;;;;5070704;28;20423;-73
2021/04/14 10:56:41;;;;;;;14.20;13.70;;;9.40;1.00;;;;;;5072168;28;21012;-73
2021/04/14 10:59:13;;;;;;;15.67;15.07;;;9.50;1.10;;;;;;5071668;28;20472;-72
2021/04/14 11:01:43;;;;;;;15.17;14.47;;;9.30;1.00;;;;;;5056161;28;20412;-73
2021/04/14 11:04:15;;;;;;;16.47;15.10;;;9.20;1.80;;;;;;5057317;28;20440;-72
2021/04/14 11:06:43;;;;;;;16.47;14.97;;;9.20;2.90;;;;;;5052468;28;20456;-73
2021/04/14 11:09:10;;;;;;;16.53;15.63;;;9.10;4.10;;;;;;5050668;28;20500;-71
2021/04/14 11:11:37;;;;;;;15.23;14.30;;;9.00;4.20;;;;;;5056079;28;20511;-72
2021/04/14 11:14:06;;;;;;;14.90;14.20;;;8.90;4.30;;;;;;5051533;28;20420;-73
2021/04/14 11:16:33;;;;;;;14.80;14.20;;;8.90;5.10;;;;;;5051625;28;21041;-72
2021/04/14 11:19:09;;;;;;;15.83;15.10;;;9.00;4.90;;;;;;5054617;28;20415;-72
2021/04/14 11:21:34;;;;;;;16.43;15.47;;;9.00;4.70;;;;;;5060079;28;20435;-72
2021/04/14 11:24:12;;;;;;;15.70;15.00;;;8.90;3.90;;;;;;5050822;28;20401;-72
2021/04/14 11:26:53;;;;;;;15.40;14.73;;;8.60;4.00;;;;;;5050426;28;20219;-72
2021/04/14 11:29:25;;;;;;;15.50;14.50;;;8.40;5.00;;;;;;5049966;28;20415;-72
2021/04/14 11:31:53;;;;;;;15.43;14.50;;;8.40;4.90;;;;;;5052393;28;20441;-73
2021/04/14 11:34:29;;;;;;;16.05;15.20;;;8.30;5.30;;;;;;5052184;28;20184;-72
2021/04/14 11:37:10;;;;;;;15.20;14.60;;;8.10;4.70;;;;;;5052699;28;20216;-73
2021/04/14 11:39:51;;;;;;;15.93;14.63;;;7.90;15.50;;;;;;5062821;28;20283;-72
2021/04/14 11:42:20;;;;;;;15.52;14.82;;;7.70;21.70;;;;;;5049834;28;20190;-71
2021/04/14 11:44:49;;;;;;;15.45;14.85;;;7.70;21.90;;;;;;5056501;28;20189;-75
2021/04/14 11:47:26;;;;;;;16.00;15.40;;;7.70;31.20;;;;;;5067898;28;20282;-73
2021/04/14 11:49:52;;;;;;;15.35;14.55;;;7.60;30.10;;;;;;5061250;28;20532;-73
2021/04/14 11:52:28;;;;;;;15.00;14.27;;;7.30;34.70;;;;;;5047511;28;20195;-73
2021/04/14 11:54:57;;;;;;;14.88;14.27;;;;;;;;;;5047504;28;20433;-71
2021/04/14 11:57:38;;;;;;;14.68;14.18;;;7.50;43.50;;;;;;5063192;28;20181;-72
2021/04/14 12:00:27;;;;;;;15.75;14.95;;;7.80;40.40;;;;;;5067697;28;20183;-72
2021/04/14 12:03:02;;;;;;;15.57;14.87;;;8.10;39.40;;;;;;5068228;28;20179;-71
2021/04/14 12:05:28;;;;;;;14.53;13.93;;;8.10;40.40;;;;;;5066176;28;20696;-71
2021/04/14 12:07:53;;;;;;;16.17;14.77;;;8.10;33.10;;;;;;5066970;28;20514;-72
2021/04/14 12:10:19;;;;;;;14.50;14.00;;;8.00;31.70;;;;;;5067990;28;20195;-71
2021/04/14 12:12:48;;;;;;;14.97;13.83;;;7.90;33.60;;;;;;5070228;28;20279;-73
2021/04/14 12:15:14;;;;;;;14.30;13.70;;;8.00;34.10;;;;;;5080121;28;20837;-74
2021/04/14 12:17:40;;;;;;;15.73;14.97;;;8.10;34.30;;;;;;5067942;28;20488;-73
2021/04/14 12:20:06;;;;;;;15.30;14.40;;;8.10;35.10;;;;;;5066211;28;20426;-73
2021/04/14 12:22:32;;;;;;;16.30;15.50;;;8.10;34.60;;;;;;5068457;28;20484;-72
2021/04/14 12:24:58;;;;;;;14.87;14.27;;;8.10;34.20;;;;;;5069711;28;20416;-73
2021/04/14 12:27:24;;;;;;;17.37;16.37;;;8.10;35.60;;;;;;5069129;28;20440;-72
2021/04/14 12:29:50;;;;;;;15.87;14.97;;;8.00;37.90;;;;;;5069138;28;20425;-73
2021/04/14 12:32:16;;;;;;;16.80;15.90;;;8.00;37.80;;;;;;5070899;28;20603;-73
2021/04/14 12:34:42;;;;;;;15.97;15.27;;;8.10;37.70;;;;;;5070948;28;20510;-72
2021/04/14 12:37:07;;;;;;;15.50;14.80;;;8.20;38.20;;;;;;5069457;28;20524;-72
2021/04/14 12:39:33;;;;;;;15.40;14.80;;;8.20;37.60;;;;;;5064384;28;20214;-72
2021/04/14 12:41:58;;;;;;;16.67;15.70;;;8.50;37.00;;;;;;5049821;28;20207;-72
2021/04/14 12:44:24;;;;;;;15.17;14.50;;;8.50;37.90;;;;;;5050365;28;20183;-73
2021/04/14 12:46:51;;;;;;;16.03;15.43;;;8.60;36.30;;;;;;5050419;28;20273;-73
2021/04/14 12:49:19;;;;;;;14.90;14.40;;;8.70;35.00;;;;;;5060007;28;20184;-74
2021/04/14 12:51:56;;;;;;;15.53;14.83;;;8.80;35.40;;;;;;5077770;28;20419;-73
2021/04/14 12:54:36;;;;;;;16.17;15.47;;;8.90;36.20;;;;;;5067288;28;20784;-73
2021/04/14 12:57:21;;;;;;;16.00;15.30;;;8.90;35.80;;;;;;5057183;28;20464;-76
2021/04/14 12:59:49;;;;;;;17.57;16.37;;;8.70;35.80;;;;;;5057168;28;20412;-73